Terminal Aerodrome Forecast
Issued by NWS

Home | Current Version | Previous Version | Text Only | Print | Product List | Glossary On
Versions: 1 2 3 4 5 6 7 8 9 10 11 12 13 14 15 16 17 18 19 20 21 22 23 24 25 26 27 28 29 30 31 32 33 34 35 36 37 38 39 40 41 42 43 44 45 46 47 48 49 50
000
FTUS45 KGJT 161731
TAFTEX
TAF
KTEX 161731Z 1618/1718 26003KT P6SM VCSH BKN004 OVC070
      TEMPO 1619/1621 3SM -SN
     FM170200 VRB03KT P6SM OVC008
     FM171600 VRB03KT P6SM SCT025=

USA.gov is the U.S. government's official web portal to all federal, state and local government web resources and services.